Time;durP1;ratioP1;P1;durP2;ratioP2;P2;SDS_P1;SDS_P2;PMS_P1;PMS_P2;Temp;Humidity;BMP_temperature;BMP_pressure;BME280_temperature;BME280_humidity;BME280_pressure;Samples;Min_cycle;Max_cycle;Signal;HPM_P1;HPM_P2
2022/11/14 00:02:16;;;;;;;31.38;16.13;;;;;;;5.85;53.85;102014.66;5019040;28;20154;-74
2022/11/14 00:05:00;;;;;;;32.10;15.18;;;;;;;5.93;54.07;102012.91;5020168;28;20136;-74
2022/11/14 00:07:44;;;;;;;30.55;14.02;;;;;;;5.95;54.07;102018.97;5007952;28;20385;-74
2022/11/14 00:10:29;;;;;;;32.13;15.45;;;;;;;6.02;53.63;102012.88;5020503;28;20667;-75
2022/11/14 00:13:14;;;;;;;33.63;16.63;;;;;;;6.21;53.42;102002.44;5027323;28;20075;-75
2022/11/14 00:15:59;;;;;;;33.58;16.42;;;;;;;6.06;54.06;102001.63;5032391;28;20132;-76
2022/11/14 00:18:43;;;;;;;33.45;15.98;;;;;;;6.05;54.19;101997.28;5028573;28;20105;-75
2022/11/14 00:21:27;;;;;;;32.25;14.63;;;;;;;5.94;54.31;101988.66;5022451;28;20056;-73
2022/11/14 00:24:11;;;;;;;34.70;15.68;;;;;;;6.32;53.45;101990.31;5020124;28;20111;-75
2022/11/14 00:26:56;;;;;;;29.08;14.55;;;;;;;6.07;54.12;101979.97;5015199;28;20818;-74
2022/11/14 00:29:40;;;;;;;32.03;16.67;;;;;;;6.05;54.57;101976.53;5006853;28;20293;-74
2022/11/14 00:32:24;;;;;;;35.25;16.15;;;;;;;6.11;54.32;101972.19;5014045;28;20532;-75
2022/11/14 00:35:08;;;;;;;41.05;17.83;;;;;;;5.93;55.01;101976.59;5019235;28;20099;-74
2022/11/14 00:37:53;;;;;;;37.40;16.50;;;;;;;6.09;54.85;101962.66;5005599;28;20099;-76
2022/11/14 00:40:37;;;;;;;35.50;15.65;;;;;;;6.05;54.63;101955.75;5019835;28;20051;-75
2022/11/14 00:43:21;;;;;;;33.35;15.25;;;;;;;6.06;54.74;101954.03;5008018;28;20048;-73
2022/11/14 00:46:05;;;;;;;36.63;16.48;;;;;;;6.25;54.28;101941.84;5020482;28;20807;-74
2022/11/14 00:48:49;;;;;;;32.40;14.73;;;;;;;6.06;54.96;101938.44;5010106;28;20091;-73
2022/11/14 00:51:34;;;;;;;31.40;15.63;;;;;;;5.72;55.80;101940.31;5008888;28;20049;-73
2022/11/14 00:54:18;;;;;;;34.13;18.10;;;;;;;5.83;55.54;101938.53;5017735;28;20236;-74
2022/11/14 00:57:02;;;;;;;33.78;16.10;;;;;;;5.76;55.98;101942.03;5004334;28;20748;-73
2022/11/14 00:59:46;;;;;;;30.15;14.93;;;;;;;6.00;55.39;101943.69;5016210;28;20095;-68
2022/11/14 01:02:30;;;;;;;31.38;16.67;;;;;;;6.03;55.22;101936.72;5018807;28;20051;-68
2022/11/14 01:05:14;;;;;;;32.38;16.30;;;;;;;5.84;55.56;101937.69;5017623;28;20056;-68
2022/11/14 01:07:58;;;;;;;31.25;16.13;;;;;;;5.95;55.30;101933.31;5017438;28;20052;-67
2022/11/14 01:10:46;;;;;;;31.90;15.57;;;;;;;5.98;55.35;101922.06;5015357;28;20132;-68
2022/11/14 01:13:31;;;;;;;35.03;17.30;;;;;;;5.96;55.12;101919.47;5019536;28;20569;-70
2022/11/14 01:16:15;;;;;;;31.65;15.85;;;;;;;5.72;56.01;101916.97;5018632;28;20806;-70
2022/11/14 01:18:59;;;;;;;39.10;16.77;;;;;;;5.62;56.09;101913.53;5010036;28;20079;-74
2022/11/14 01:21:43;;;;;;;33.17;16.45;;;;;;;5.62;56.27;101911.81;5021056;28;20132;-73
2022/11/14 01:24:27;;;;;;;30.88;14.20;;;;;;;5.90;55.17;101901.31;5006265;28;20067;-73
2022/11/14 01:27:11;;;;;;;33.53;16.50;;;;;;;5.84;55.25;101894.44;5016531;28;20604;-74
2022/11/14 01:29:55;;;;;;;36.40;17.10;;;;;;;5.98;54.76;101894.38;5021423;28;22166;-73
2022/11/14 01:32:40;;;;;;;37.70;16.75;;;;;;;5.81;55.30;101884.06;5016363;28;20055;-72
2022/11/14 01:35:24;;;;;;;32.78;16.50;;;;;;;5.82;55.39;101879.75;5012639;28;20150;-69
2022/11/14 01:38:13;;;;;;;38.42;16.70;;;;;;;5.73;55.63;101879.78;5019917;28;20099;-69
2022/11/14 01:40:57;;;;;;;33.30;17.05;;;;;;;5.58;55.93;101878.97;5021271;28;20052;-69
2022/11/14 01:43:42;;;;;;;35.15;15.93;;;;;;;5.73;55.51;101879.78;5006301;28;20356;-68
2022/11/14 01:46:39;;;;;;;35.38;17.88;;;;;;;5.64;55.70;101875.50;5021666;28;20054;-69
2022/11/14 01:49:34;;;;;;;38.97;18.23;;;;;;;5.60;55.85;101874.63;5021224;28;20114;-68
2022/11/14 01:52:30;;;;;;;35.78;18.10;;;;;;;5.75;55.53;101863.34;5018190;28;20059;-68
2022/11/14 01:55:14;;;;;;;38.42;18.08;;;;;;;5.72;55.34;101858.16;5009061;28;20064;-68
2022/11/14 01:57:59;;;;;;;34.90;16.75;;;;;;;5.75;55.41;101860.75;5018556;28;20497;-68
2022/11/14 02:00:43;;;;;;;35.88;16.98;;;;;;;5.81;55.47;101846.88;5019166;28;20048;-68
2022/11/14 02:03:27;;;;;;;34.25;18.13;;;;;;;5.51;56.03;101853.06;5006195;28;20051;-67
2022/11/14 02:06:15;;;;;;;36.20;16.95;;;;;;;5.50;56.15;101839.22;5019834;28;20296;-68
2022/11/14 02:09:02;;;;;;;34.95;18.48;;;;;;;5.52;56.15;101834.03;5021540;28;20351;-73
2022/11/14 02:11:46;;;;;;;38.33;16.95;;;;;;;5.54;55.86;101832.28;5019457;28;20071;-73
2022/11/14 02:14:32;;;;;;;37.45;17.92;;;;;;;5.19;56.83;101817.69;5022018;28;20052;-71
2022/11/14 02:17:18;;;;;;;37.38;17.50;;;;;;;5.02;57.26;101817.75;5020014;28;20324;-70
2022/11/14 02:20:02;;;;;;;35.70;16.67;;;;;;;5.16;56.82;101812.53;5020040;28;20053;-73
2022/11/14 02:22:46;;;;;;;36.40;17.40;;;;;;;5.16;56.90;101810.78;5018180;28;20374;-72
2022/11/14 02:25:30;;;;;;;32.97;17.55;;;;;;;5.34;56.42;101809.03;5020873;28;20052;-72
2022/11/14 02:28:14;;;;;;;36.45;20.35;;;;;;;5.32;56.84;101816.78;5025774;28;20064;-72
2022/11/14 02:30:58;;;;;;;33.75;17.80;;;;;;;5.60;56.03;101802.00;5024863;28;20418;-72
2022/11/14 02:33:42;;;;;;;34.45;16.73;;;;;;;5.89;54.95;101793.22;5022246;28;20075;-73
2022/11/14 02:36:27;;;;;;;36.17;18.33;;;;;;;5.79;55.32;101796.72;5020669;28;20195;-75
2022/11/14 02:39:11;;;;;;;35.40;17.90;;;;;;;5.74;55.25;101778.59;5020375;28;20799;-73
2022/11/14 02:41:55;;;;;;;34.90;18.52;;;;;;;5.52;55.99;101788.22;5019750;28;20103;-73
2022/11/14 02:44:39;;;;;;;32.92;16.60;;;;;;;5.52;55.57;101785.59;5018843;28;20114;-73
2022/11/14 02:47:23;;;;;;;31.13;16.58;;;;;;;5.42;55.87;101789.13;5005794;28;20076;-74
2022/11/14 02:50:08;;;;;;;37.05;17.83;;;;;;;5.71;55.25;101782.97;5009705;28;20639;-72
2022/11/14 02:52:52;;;;;;;34.72;17.52;;;;;;;5.29;56.03;101785.72;5019827;28;20102;-70
2022/11/14 02:55:37;;;;;;;33.78;17.17;;;;;;;5.18;56.45;101780.56;5005051;28;20761;-73
2022/11/14 02:58:21;;;;;;;34.42;16.60;;;;;;;5.07;56.36;101776.28;5017686;28;20048;-71
2022/11/14 03:01:05;;;;;;;40.63;18.13;;;;;;;5.29;55.88;101774.50;5006421;28;20048;-72
2022/11/14 03:03:49;;;;;;;32.67;16.55;;;;;;;5.07;55.93;101779.72;5017270;28;20044;-71
2022/11/14 03:06:33;;;;;;;36.75;16.60;;;;;;;5.17;55.88;101778.84;5020024;28;20110;-71
2022/11/14 03:09:17;;;;;;;36.25;17.67;;;;;;;5.25;55.75;101774.47;5019755;28;20043;-71
2022/11/14 03:12:01;;;;;;;27.50;16.92;;;;;;;5.31;55.43;101772.75;5012074;28;20095;-71
2022/11/14 03:14:46;;;;;;;34.20;16.23;;;;;;;5.39;55.06;101776.16;5009199;28;20473;-71
2022/11/14 03:17:32;;;;;;;36.67;16.55;;;;;;;5.29;55.76;101758.94;5017971;28;20178;-71
2022/11/14 03:20:16;;;;;;;39.72;16.38;;;;;;;5.54;54.95;101764.88;5012534;28;20060;-71
2022/11/14 03:23:00;;;;;;;34.67;16.95;;;;;;;5.48;54.83;101759.69;4992755;28;20080;-71
2022/11/14 03:25:44;;;;;;;37.35;16.40;;;;;;;5.11;55.76;101752.09;5003205;28;20103;-71
2022/11/14 03:28:28;;;;;;;36.35;17.13;;;;;;;5.12;55.68;101757.25;5019563;28;20555;-74
2022/11/14 03:31:13;;;;;;;34.53;18.15;;;;;;;5.28;55.45;101746.81;5016412;28;20054;-72
2022/11/14 03:33:57;;;;;;;40.03;18.23;;;;;;;5.34;55.18;101752.84;5017411;28;20047;-75
2022/11/14 03:36:41;;;;;;;35.88;17.05;;;;;;;5.29;55.10;101748.56;5017485;28;20109;-76
2022/11/14 03:39:26;;;;;;;42.58;19.23;;;;;;;5.02;55.80;101746.06;5021585;28;20051;-74
2022/11/14 03:42:11;;;;;;;37.08;17.52;;;;;;;4.89;56.27;101738.31;5018670;28;20044;-72
2022/11/14 03:44:55;;;;;;;42.60;19.13;;;;;;;4.86;55.89;101736.56;5016729;28;20048;-72
2022/11/14 03:47:39;;;;;;;36.95;17.88;;;;;;;4.76;56.49;101734.84;4981672;28;20079;-73
2022/11/14 03:50:22;;;;;;;40.63;17.67;;;;;;;4.46;57.02;101733.19;5017813;28;20133;-73
2022/11/14 03:53:06;;;;;;;35.92;15.32;;;;;;;4.72;56.03;101740.91;5020096;28;20076;-74
2022/11/14 03:55:51;;;;;;;33.67;16.77;;;;;;;4.71;56.51;101732.28;5018730;28;20095;-71
2022/11/14 03:58:35;;;;;;;37.28;17.00;;;;;;;4.72;56.08;101731.44;5005110;28;20138;-75
2022/11/14 04:01:19;;;;;;;37.90;16.42;;;;;;;4.81;55.76;101723.63;5021337;28;20103;-72
2022/11/14 04:04:04;;;;;;;33.38;16.60;;;;;;;4.96;55.19;101714.13;5004556;28;20195;-73
2022/11/14 04:06:47;;;;;;;30.05;15.18;;;;;;;4.82;55.94;101716.72;5018901;28;20215;-74
2022/11/14 04:09:32;;;;;;;37.58;17.40;;;;;;;4.89;55.56;101712.41;5008437;28;20465;-75
2022/11/14 04:12:16;;;;;;;34.15;16.50;;;;;;;4.75;55.92;101709.84;5018025;28;20052;-74
2022/11/14 04:14:59;;;;;;;40.38;18.88;;;;;;;4.64;56.44;101707.25;5017629;28;20473;-76
2022/11/14 04:17:44;;;;;;;31.17;16.23;;;;;;;4.42;56.62;101707.28;5020600;28;20473;-77
2022/11/14 04:20:29;;;;;;;32.05;17.23;;;;;;;4.56;56.41;101694.31;5018343;28;20246;-76
2022/11/14 04:23:13;;;;;;;33.25;16.33;;;;;;;4.75;55.92;101704.66;5017444;28;20091;-75
2022/11/14 04:25:57;;;;;;;36.70;17.67;;;;;;;5.01;55.03;101695.13;5019505;28;20056;-73
2022/11/14 04:28:41;;;;;;;28.60;14.95;;;;;;;4.86;55.55;101697.72;5017140;28;20041;-76
2022/11/14 04:31:25;;;;;;;35.78;16.58;;;;;;;4.68;55.69;101693.44;5018460;28;20072;-76
2022/11/14 04:34:09;;;;;;;36.78;17.02;;;;;;;4.16;56.77;101696.97;5018886;28;20089;-74
2022/11/14 04:36:53;;;;;;;34.30;16.70;;;;;;;4.33;56.39;101698.69;5018797;28;20055;-75
2022/11/14 04:39:37;;;;;;;38.72;16.80;;;;;;;4.50;55.98;101680.50;5018699;28;20047;-74
2022/11/14 04:42:21;;;;;;;32.67;16.58;;;;;;;4.78;55.08;101682.19;5021333;28;20544;-72
2022/11/14 04:45:06;;;;;;;33.22;16.70;;;;;;;4.76;55.14;101681.31;5029501;28;20044;-78
2022/11/14 04:47:51;;;;;;;43.95;17.88;;;;;;;4.44;55.84;101673.63;5027636;28;20469;-75
2022/11/14 04:50:35;;;;;;;40.63;18.13;;;;;;;4.36;56.38;101675.38;5019070;28;20065;-75
2022/11/14 04:53:19;;;;;;;33.17;16.45;;;;;;;4.31;56.37;101683.13;5007083;28;20056;-76
2022/11/14 04:56:03;;;;;;;40.70;17.55;;;;;;;4.29;56.15;101674.50;5021625;28;20113;-75
2022/11/14 04:58:48;;;;;;;36.95;17.55;;;;;;;4.42;55.41;101676.22;5016444;28;20476;-77
2022/11/14 05:01:32;;;;;;;33.95;16.25;;;;;;;4.43;55.28;101662.44;5008005;28;20083;-75
2022/11/14 05:04:16;;;;;;;33.92;17.52;;;;;;;4.03;56.43;101666.78;5014275;28;20052;-76
2022/11/14 05:07:00;;;;;;;40.95;16.27;;;;;;;3.95;56.78;101664.16;5019463;28;20110;-77
2022/11/14 05:09:45;;;;;;;31.98;15.70;;;;;;;3.93;56.91;101670.22;5014393;28;20048;-74
2022/11/14 05:12:29;;;;;;;43.45;17.30;;;;;;;3.90;56.84;101657.28;5010311;28;20188;-75
2022/11/14 05:15:13;;;;;;;36.17;16.75;;;;;;;4.02;56.57;101658.13;5017919;28;20064;-75
2022/11/14 05:17:57;;;;;;;35.63;16.90;;;;;;;4.19;56.07;101655.56;5017753;28;20095;-76
2022/11/14 05:20:41;;;;;;;36.78;17.00;;;;;;;3.89;56.37;101671.91;5018062;28;20048;-76
2022/11/14 05:23:26;;;;;;;36.38;16.85;;;;;;;3.97;56.52;101659.00;5002725;28;20745;-75
2022/11/14 05:26:13;;;;;;;35.13;16.48;;;;;;;4.24;55.89;101647.78;5017848;28;20048;-72
2022/11/14 05:28:57;;;;;;;34.47;15.82;;;;;;;4.27;55.69;101650.34;5018518;28;20099;-73
2022/11/14 05:31:42;;;;;;;44.50;17.23;;;;;;;4.09;56.37;101652.97;5004465;28;20051;-72
2022/11/14 05:34:26;;;;;;;33.78;15.73;;;;;;;4.46;54.81;101647.75;5019560;28;20052;-72
2022/11/14 05:37:10;;;;;;;37.78;17.88;;;;;;;4.41;55.35;101643.44;5017502;28;20103;-72
2022/11/14 05:39:54;;;;;;;39.78;16.17;;;;;;;4.57;54.52;101631.31;5015505;28;20048;-73
2022/11/14 05:42:38;;;;;;;36.58;15.77;;;;;;;4.48;55.15;101638.25;5015346;28;20051;-73
2022/11/14 05:45:23;;;;;;;33.33;17.30;;;;;;;4.15;56.02;101633.13;5016546;28;20477;-71
2022/11/14 05:48:07;;;;;;;36.33;17.23;;;;;;;4.42;55.31;101629.63;5017310;28;20049;-71
2022/11/14 05:50:59;;;;;;;40.50;16.63;;;;;;;4.04;56.33;101631.41;5016330;28;20072;-71
2022/11/14 05:53:43;;;;;;;;;;;;;;;3.66;56.42;101633.13;5015168;28;20557;-72
2022/11/14 05:56:27;;;;;;;32.17;15.85;;;;;;;4.25;55.73;101633.09;5017904;28;19927;-73
2022/11/14 05:59:11;;;;;;;34.03;16.95;;;;;;;4.29;55.54;101638.28;5005884;28;20136;-71
2022/11/14 06:01:55;;;;;;;35.08;16.40;;;;;;;4.46;55.25;101629.63;5011879;28;20114;-72
2022/11/14 06:04:39;;;;;;;40.00;17.77;;;;;;;4.49;55.19;101635.66;5018544;28;20048;-71
2022/11/14 06:07:23;;;;;;;39.38;16.33;;;;;;;4.64;54.92;101629.56;5016141;28;20997;-71
2022/11/14 06:10:08;;;;;;;38.55;18.08;;;;;;;4.14;55.43;101622.75;5004697;28;20406;-72
2022/11/14 06:12:52;;;;;;;36.25;17.60;;;;;;;4.15;55.51;101629.69;5016640;28;20138;-74
2022/11/14 06:15:36;;;;;;;33.47;16.88;;;;;;;4.32;55.08;101633.13;5019976;28;20044;-74
2022/11/14 06:18:20;;;;;;;36.70;17.48;;;;;;;4.17;55.52;101627.97;5021261;28;20075;-73
2022/11/14 06:21:16;;;;;;;38.17;17.65;;;;;;;4.08;55.52;101630.56;5022440;28;20051;-73
2022/11/14 06:24:00;;;;;;;37.42;16.65;;;;;;;4.04;55.76;101632.28;5016584;28;20052;-72
2022/11/14 06:26:44;;;;;;;38.28;16.98;;;;;;;3.98;55.94;101627.09;5018384;28;20048;-72
2022/11/14 06:29:28;;;;;;;40.33;17.70;;;;;;;3.90;55.94;101641.78;5018254;28;20838;-72
2022/11/14 06:32:12;;;;;;;34.85;16.00;;;;;;;4.21;55.06;101635.72;5021589;28;20048;-72
2022/11/14 06:34:56;;;;;;;35.38;16.30;;;;;;;4.15;55.30;101634.84;5020501;28;20052;-72
2022/11/14 06:37:40;;;;;;;46.08;18.80;;;;;;;4.26;55.17;101633.13;5017659;28;20525;-70
2022/11/14 06:40:24;;;;;;;41.55;17.30;;;;;;;3.82;56.30;101635.72;5018743;28;20528;-71
2022/11/14 06:43:08;;;;;;;43.03;17.35;;;;;;;4.07;55.99;101634.00;5019740;28;20094;-72
2022/11/14 06:45:53;;;;;;;39.22;16.95;;;;;;;3.86;55.98;101640.91;5016797;28;20052;-75
2022/11/14 06:48:38;;;;;;;38.47;17.40;;;;;;;3.95;55.97;101642.63;5018590;28;20118;-72
2022/11/14 06:51:22;;;;;;;40.00;18.70;;;;;;;4.12;55.41;101635.72;5013462;28;20052;-72
2022/11/14 06:54:06;;;;;;;38.13;18.80;;;;;;;3.82;56.36;101638.31;5021621;28;20416;-75
2022/11/14 06:56:50;;;;;;;47.90;20.90;;;;;;;3.86;56.33;101637.47;5018794;28;20044;-75
2022/11/14 06:59:34;;;;;;;42.13;18.42;;;;;;;3.88;56.35;101633.16;5033569;28;20612;-75
2022/11/14 07:02:18;;;;;;;38.25;18.00;;;;;;;4.02;55.77;101639.16;5020821;28;20146;-75
2022/11/14 07:05:02;;;;;;;40.90;18.17;;;;;;;4.19;55.44;101639.16;5020892;28;20106;-72
2022/11/14 07:07:46;;;;;;;41.13;17.02;;;;;;;4.17;55.18;101638.31;5014176;28;20479;-73
2022/11/14 07:10:30;;;;;;;43.10;18.17;;;;;;;4.16;55.35;101641.75;5020112;28;20048;-74
2022/11/14 07:13:14;;;;;;;36.97;17.17;;;;;;;4.32;54.88;101643.47;5018371;28;20211;-66
2022/11/14 07:15:58;;;;;;;42.17;19.17;;;;;;;4.19;55.30;101632.25;5020448;28;20358;-70
2022/11/14 07:18:42;;;;;;;38.67;18.52;;;;;;;3.58;56.62;101643.47;5014702;28;20052;-71
2022/11/14 07:21:29;;;;;;;41.83;18.52;;;;;;;4.01;55.80;101633.16;5019343;28;20064;-70
2022/11/14 07:24:13;;;;;;;37.60;16.45;;;;;;;4.16;54.85;101631.41;5019589;28;20056;-70
2022/11/14 07:26:57;;;;;;;38.05;17.50;;;;;;;4.46;54.83;101635.66;5015923;28;20556;-70
2022/11/14 07:29:41;;;;;;;42.03;19.05;;;;;;;4.27;55.30;101636.56;5018663;28;20075;-70
2022/11/14 07:32:25;;;;;;;40.83;19.02;;;;;;;4.23;55.29;101638.31;5016106;28;20051;-70
2022/11/14 07:35:09;;;;;;;43.55;18.92;;;;;;;3.82;55.84;101636.59;5019373;28;20098;-69
2022/11/14 07:38:00;;;;;;;36.70;17.38;;;;;;;4.00;55.74;101631.41;5019735;28;20075;-69
2022/11/14 07:40:55;;;;;;;35.45;15.98;;;;;;;3.93;55.47;101634.84;5017560;28;20067;-72
2022/11/14 07:43:40;;;;;;;37.22;17.52;;;;;;;4.49;54.60;101635.66;5017873;28;20414;-70
2022/11/14 07:46:24;;;;;;;39.38;17.95;;;;;;;4.24;54.95;101634.84;5020436;28;20056;-73
2022/11/14 07:49:08;;;;;;;41.70;18.60;;;;;;;4.25;54.92;101636.56;5007065;28;20536;-71
2022/11/14 07:51:52;;;;;;;32.72;17.25;;;;;;;4.01;55.89;101638.31;5020282;28;21591;-71
2022/11/14 07:54:37;;;;;;;37.95;17.83;;;;;;;4.16;55.14;101627.09;5016449;28;20126;-71
2022/11/14 07:57:21;;;;;;;45.38;18.38;;;;;;;4.27;55.05;101640.00;5020083;28;20825;-70
2022/11/14 08:00:06;;;;;;;38.30;18.30;;;;;;;3.84;56.36;101640.03;5018944;28;20068;-71
2022/11/14 08:02:51;;;;;;;46.25;19.83;;;;;;;4.22;55.37;101636.56;5007264;28;20052;-71
2022/11/14 08:05:35;;;;;;;48.80;19.73;;;;;;;3.99;55.74;101640.03;5017682;28;20876;-71
2022/11/14 08:08:19;;;;;;;34.15;17.25;;;;;;;3.99;55.77;101639.19;5017921;28;20077;-70
2022/11/14 08:11:04;;;;;;;40.13;17.10;;;;;;;3.91;55.94;101636.59;5020870;28;20054;-71
2022/11/14 08:13:48;;;;;;;39.28;18.30;;;;;;;3.85;56.11;101628.84;5017043;28;20125;-70
2022/11/14 08:16:32;;;;;;;42.80;17.83;;;;;;;4.41;54.64;101630.50;5021239;28;20110;-71
2022/11/14 08:19:17;;;;;;;46.20;18.27;;;;;;;4.57;54.68;101614.94;5019381;28;20852;-71
2022/11/14 08:22:01;;;;;;;43.15;17.85;;;;;;;4.99;53.15;101613.94;5020370;28;20175;-71
2022/11/14 08:24:45;;;;;;;40.55;17.75;;;;;;;4.88;53.86;101620.00;5016715;28;20040;-72
2022/11/14 08:27:29;;;;;;;40.63;19.17;;;;;;;4.58;54.49;101609.72;5016605;28;20229;-71
2022/11/14 08:30:14;;;;;;;39.30;18.55;;;;;;;4.23;55.38;101615.03;5019333;28;20155;-70
2022/11/14 08:33:02;;;;;;;36.92;18.33;;;;;;;4.37;54.82;101605.50;5003800;28;20091;-72
2022/11/14 08:35:46;;;;;;;35.00;17.70;;;;;;;4.26;54.94;101612.41;5016986;28;20440;-71
2022/11/14 08:38:31;;;;;;;46.20;19.85;;;;;;;4.22;55.12;101611.53;5017248;28;20098;-71
2022/11/14 08:41:15;;;;;;;40.15;17.75;;;;;;;4.04;55.68;101611.56;5018647;28;20076;-72
2022/11/14 08:43:59;;;;;;;43.42;19.50;;;;;;;4.35;55.08;101602.03;5015912;28;20435;-69
2022/11/14 08:46:43;;;;;;;47.33;17.92;;;;;;;4.38;54.90;101596.00;5004579;28;20095;-72
2022/11/14 08:49:27;;;;;;;47.90;20.33;;;;;;;4.55;54.69;101588.19;5015954;28;20518;-71
2022/11/14 08:52:11;;;;;;;37.92;18.23;;;;;;;4.48;54.87;101576.13;5017416;28;20528;-70
2022/11/14 08:54:55;;;;;;;44.97;19.50;;;;;;;4.94;53.95;101582.00;5010189;28;21207;-71
2022/11/14 08:57:39;;;;;;;40.65;18.10;;;;;;;4.75;53.82;101590.69;5015329;28;20051;-70
2022/11/14 09:00:24;;;;;;;40.85;19.77;;;;;;;4.05;55.20;101582.28;5019101;28;20133;-70
2022/11/14 09:03:09;;;;;;;49.67;20.42;;;;;;;4.00;55.78;101579.66;5018837;28;20056;-71
2022/11/14 09:05:53;;;;;;;41.13;19.88;;;;;;;4.72;54.31;101590.69;5013391;28;20055;-70
2022/11/14 09:08:37;;;;;;;45.30;19.30;;;;;;;4.64;54.02;101589.00;5016331;28;20135;-71
2022/11/14 09:11:22;;;;;;;45.45;21.23;;;;;;;4.73;54.04;101580.34;5021751;28;20076;-71
2022/11/14 09:14:06;;;;;;;45.60;19.80;;;;;;;4.95;53.52;101572.50;5021065;28;21065;-71
2022/11/14 09:16:50;;;;;;;41.42;18.35;;;;;;;4.58;54.34;101564.84;5007499;28;20693;-73
2022/11/14 09:19:34;;;;;;;47.10;20.38;;;;;;;4.66;54.36;101565.69;5020321;28;20871;-72
2022/11/14 09:22:19;;;;;;;40.53;18.15;;;;;;;4.58;54.50;101562.28;5007453;28;20052;-73
2022/11/14 09:25:03;;;;;;;44.63;19.25;;;;;;;4.52;54.58;101563.19;5022440;28;20075;-73
2022/11/14 09:27:47;;;;;;;42.25;20.13;;;;;;;4.51;54.66;101556.25;5019190;28;20052;-74
2022/11/14 09:30:32;;;;;;;42.63;18.85;;;;;;;4.77;54.05;101548.38;5016618;28;20331;-73
2022/11/14 09:33:16;;;;;;;39.50;18.55;;;;;;;5.08;53.29;101549.97;5014724;28;20535;-70
2022/11/14 09:36:05;;;;;;;47.72;21.33;;;;;;;5.43;52.44;101549.72;5015934;28;20409;-71
2022/11/14 09:38:50;;;;;;;42.08;19.50;;;;;;;5.03;53.40;101547.41;5015238;28;20527;-71
2022/11/14 09:41:55;;;;;;;39.67;18.50;;;;;;;4.99;53.17;101543.97;5000995;28;20052;-72
2022/11/14 09:44:57;;;;;;;42.13;18.40;;;;;;;5.02;53.62;101559.50;5016249;28;20279;-72
2022/11/14 09:47:49;;;;;;;38.72;18.30;;;;;;;4.73;54.24;101564.81;5004789;28;20156;-72
2022/11/14 09:50:38;;;;;;;42.95;19.20;;;;;;;4.56;54.06;101559.69;5005163;28;20132;-71
2022/11/14 09:53:36;;;;;;;42.25;19.35;;;;;;;4.86;54.10;101554.41;5019470;28;20126;-72
2022/11/14 09:56:25;;;;;;;40.67;17.83;;;;;;;4.75;54.46;101567.41;5020703;28;20049;-71
2022/11/14 09:59:10;;;;;;;43.38;18.20;;;;;;;4.58;54.79;101567.44;5021478;28;20094;-71
2022/11/14 10:02:14;;;;;;;41.08;20.05;;;;;;;4.58;54.71;101565.72;5022006;28;20417;-71
2022/11/14 10:05:36;;;;;;;43.45;19.75;;;;;;;4.84;54.46;101563.03;5021671;28;20686;-73
2022/11/14 10:08:55;;;;;;;49.72;19.65;;;;;;;5.12;53.75;101560.28;5020776;28;20132;-71
2022/11/14 10:11:53;;;;;;;42.75;18.38;;;;;;;4.98;53.71;101572.47;5021065;28;20056;-72
2022/11/14 10:14:54;;;;;;;44.78;19.38;;;;;;;5.30;53.15;101574.00;5009899;28;20047;-71
2022/11/14 10:18:00;;;;;;;46.60;19.73;;;;;;;5.06;54.01;101552.59;5017993;28;20044;-72
2022/11/14 10:21:00;;;;;;;40.38;17.48;;;;;;;5.33;53.01;101563.63;5018270;28;20128;-72
2022/11/14 10:23:53;;;;;;;41.88;18.52;;;;;;;5.35;53.25;101564.50;5017013;28;20060;-72
2022/11/14 10:26:50;;;;;;;38.28;18.17;;;;;;;5.32;53.15;101556.72;5017116;28;20056;-72
2022/11/14 10:30:00;;;;;;;43.55;19.40;;;;;;;5.23;53.05;101553.34;5020489;28;20036;-71
2022/11/14 10:33:19;;;;;;;45.20;18.45;;;;;;;5.92;51.77;101551.88;5019672;28;20386;-72
2022/11/14 10:36:10;;;;;;;45.83;19.65;;;;;;;5.69;52.18;101552.09;5019964;28;20071;-72
2022/11/14 10:39:30;;;;;;;44.38;20.15;;;;;;;6.10;51.94;101548.25;5016547;28;20789;-72
2022/11/14 10:42:38;;;;;;;40.45;18.55;;;;;;;6.33;50.68;101545.44;5018137;28;20403;-72
2022/11/14 10:45:37;;;;;;;42.83;19.50;;;;;;;5.35;52.08;101542.00;5015662;28;20102;-72
2022/11/14 10:48:24;;;;;;;35.28;18.83;;;;;;;5.77;51.15;101546.84;5012016;28;20099;-73
2022/11/14 10:51:20;;;;;;;41.20;18.05;;;;;;;5.94;51.11;101534.56;5020955;28;20102;-70
2022/11/14 10:54:09;;;;;;;36.78;16.63;;;;;;;6.00;50.88;101518.09;5018474;28;20097;-73
2022/11/14 10:56:54;;;;;;;34.53;16.70;;;;;;;5.78;51.35;101518.28;5013536;28;20056;-71
2022/11/14 10:59:38;;;;;;;38.78;16.77;;;;;;;5.72;51.51;101530.47;5018563;28;20422;-72
2022/11/14 11:02:22;;;;;;;32.03;15.07;;;;;;;5.93;50.94;101514.69;5003257;28;20224;-72
2022/11/14 11:05:17;;;;;;;33.95;15.73;;;;;;;6.54;50.19;101513.16;5017604;28;20531;-72
2022/11/14 11:11:31;;;;;;;32.40;16.70;;;;;;;6.77;48.93;101499.84;5016620;28;20103;-71
2022/11/14 11:14:17;;;;;;;39.45;18.08;;;;;;;6.48;49.38;101508.03;5014614;28;20088;-72
2022/11/14 11:17:10;;;;;;;34.92;18.27;;;;;;;6.37;49.53;101495.19;5002547;28;20891;-71
2022/11/14 11:19:56;;;;;;;41.28;19.00;;;;;;;6.07;50.50;101486.00;5015077;28;20056;-71
2022/11/14 11:22:41;;;;;;;39.42;17.77;;;;;;;6.73;49.03;101476.53;5014042;28;20058;-71
2022/11/14 11:25:28;;;;;;;40.92;16.80;;;;;;;6.84;49.21;101462.53;5018078;28;20481;-72
2022/11/14 11:28:18;;;;;;;37.63;19.10;;;;;;;6.91;48.68;101465.88;5012986;28;20067;-72
2022/11/14 11:31:08;;;;;;;33.35;17.40;;;;;;;7.37;48.35;101461.69;5021659;28;20135;-71
2022/11/14 11:33:52;;;;;;;38.78;18.27;;;;;;;6.78;48.99;101452.22;5019927;28;20064;-74
2022/11/14 11:36:46;;;;;;;38.38;16.83;;;;;;;6.56;49.10;101463.78;5016908;28;20935;-71
2022/11/14 11:39:34;;;;;;;40.55;17.33;;;;;;;6.43;49.64;101450.13;5009263;28;20047;-73
2022/11/14 11:42:24;;;;;;;33.28;16.60;;;;;;;6.49;49.72;101439.66;5013508;28;20309;-74
2022/11/14 11:45:16;;;;;;;38.33;16.88;;;;;;;6.67;49.24;101435.94;5016093;28;20048;-71
2022/11/14 11:48:09;;;;;;;36.53;17.35;;;;;;;6.77;49.17;101432.28;5014707;28;20091;-72
2022/11/14 11:50:52;;;;;;;36.88;17.95;;;;;;;6.87;48.69;101438.22;5003887;28;20194;-72
2022/11/14 11:53:45;;;;;;;35.83;17.00;;;;;;;6.92;49.17;101441.59;5013441;28;20047;-73
2022/11/14 11:56:30;;;;;;;32.53;15.88;;;;;;;6.89;48.83;101432.13;5014634;28;20166;-71
2022/11/14 11:59:35;;;;;;;36.72;16.80;;;;;;;6.60;49.67;101426.50;5015716;28;20243;-72
2022/11/14 12:02:24;;;;;;;39.95;17.85;;;;;;;6.39;49.48;101420.72;5017576;28;20369;-71
2022/11/14 12:05:17;;;;;;;35.08;15.38;;;;;;;6.75;49.91;101418.47;5016656;28;20796;-73
2022/11/14 12:08:31;;;;;;;38.88;15.68;;;;;;;6.69;49.14;101397.81;5013464;28;20532;-74
2022/11/14 12:11:22;;;;;;;31.17;14.88;;;;;;;6.84;49.39;101405.38;5001541;28;20068;-73
2022/11/14 12:14:21;;;;;;;35.65;17.27;;;;;;;6.60;50.21;101397.94;5016665;28;20104;-75
2022/11/14 12:17:54;;;;;;;33.85;16.52;;;;;;;6.86;49.32;101394.91;5016631;28;20056;-71
2022/11/14 12:20:51;;;;;;;40.50;16.75;;;;;;;6.93;49.42;101387.88;5009607;28;20059;-74
2022/11/14 12:24:01;;;;;;;34.33;16.58;;;;;;;7.03;49.14;101394.66;5013338;28;20055;-73
2022/11/14 12:26:47;;;;;;;36.97;16.98;;;;;;;6.84;49.45;101381.97;5001036;28;20356;-73
2022/11/14 12:29:53;;;;;;;41.05;17.27;;;;;;;6.87;50.03;101378.47;5014308;28;20048;-73
2022/11/14 12:32:50;;;;;;;37.15;16.55;;;;;;;6.94;49.70;101384.41;5012717;28;20102;-73
2022/11/14 12:35:35;;;;;;;37.75;18.38;;;;;;;6.69;50.22;101377.03;5013348;28;20103;-72
2022/11/14 12:38:21;;;;;;;39.78;18.27;;;;;;;6.06;51.94;101381.34;5014152;28;20612;-67
2022/11/14 12:41:07;;;;;;;45.92;18.33;;;;;;;6.34;51.47;101382.72;5015768;28;20044;-70
2022/11/14 12:43:51;;;;;;;34.88;16.95;;;;;;;6.70;50.45;101391.72;5012047;28;20048;-71
2022/11/14 12:47:03;;;;;;;32.97;16.98;;;;;;;6.98;49.67;101383.50;5012647;28;20125;-71
2022/11/14 12:49:48;;;;;;;35.42;18.13;;;;;;;7.17;48.83;101389.22;5013447;28;20272;-71
2022/11/14 12:52:38;;;;;;;38.40;18.27;;;;;;;6.84;49.77;101392.38;5014741;28;20056;-69